createdAt,value
2018-06-20T00:00:21.189Z,76.73
2018-06-20T00:01:21.187Z,77.21
2018-06-20T00:02:21.190Z,77.59
2018-06-20T00:03:21.193Z,76.92
2018-06-20T00:04:21.181Z,76.92
2018-06-20T00:05:21.187Z,76.53
2018-06-20T00:06:21.178Z,76.34
2018-06-20T00:07:21.215Z,75.86
2018-06-20T00:08:21.179Z,75.86
2018-06-20T00:09:21.183Z,76.18
2018-06-20T00:10:21.174Z,75.09
2018-06-20T00:11:21.167Z,74.93
2018-06-20T00:12:21.170Z,74.74
2018-06-20T00:13:21.164Z,74.65
2018-06-20T00:14:21.169Z,74.55
2018-06-20T00:15:21.162Z,74.93
2018-06-20T00:16:21.174Z,74.93
2018-06-20T00:17:21.160Z,74.55
2018-06-20T00:18:21.155Z,74.84
2018-06-20T00:19:21.155Z,75.71
2018-06-20T00:20:21.149Z,75.76
2018-06-20T00:21:21.151Z,76.48
2018-06-20T00:22:21.145Z,76.28
2018-06-20T00:23:21.142Z,76.15
2018-06-20T00:24:21.151Z,76.15
2018-06-20T00:25:21.146Z,77.21
2018-06-20T00:26:21.148Z,77.21
2018-06-20T00:27:21.137Z,77.11
2018-06-20T00:28:21.134Z,76.63
2018-06-20T00:29:21.133Z,77.21
2018-06-20T00:30:21.131Z,77.59
2018-06-20T00:31:21.134Z,77.11
2018-06-20T00:32:21.127Z,77.59
2018-06-20T00:33:21.125Z,77.69
2018-06-20T00:34:21.131Z,77.59
2018-06-20T00:35:21.121Z,77.59
2018-06-20T00:36:21.119Z,78.08
2018-06-20T00:37:21.118Z,78.81
2018-06-20T00:38:21.117Z,79.00
2018-06-20T00:39:21.119Z,78.27
2018-06-20T00:40:21.114Z,77.78
2018-06-20T00:41:21.116Z,78.23
2018-06-20T00:42:21.109Z,79.19
2018-06-20T00:43:21.109Z,79.00
2018-06-20T00:44:21.110Z,79.00
2018-06-20T00:45:21.103Z,79.38
2018-06-20T00:46:21.105Z,78.52
2018-06-20T00:47:21.116Z,78.71
2018-06-20T00:48:21.096Z,78.71
2018-06-20T00:49:21.103Z,78.52
2018-06-20T00:50:21.092Z,79.48
2018-06-20T00:51:21.097Z,79.48
2018-06-20T00:52:21.099Z,79.28
2018-06-20T00:53:21.089Z,79.48
2018-06-20T00:54:21.085Z,79.19
2018-06-20T00:55:21.089Z,79.48
2018-06-20T00:56:21.083Z,79.00
2018-06-20T00:57:21.079Z,79.77
2018-06-20T00:58:21.082Z,80.15
2018-06-20T00:59:21.080Z,79.82
2018-06-20T01:00:21.087Z,79.58
2018-06-20T01:01:21.080Z,80.06
2018-06-20T01:02:21.088Z,80.15
2018-06-20T01:03:21.072Z,80.11
2018-06-20T01:04:21.066Z,79.28
2018-06-20T01:05:21.064Z,79.96
2018-06-20T01:06:21.076Z,79.96
2018-06-20T01:07:21.068Z,79.67
2018-06-20T01:08:21.057Z,79.77
2018-06-20T01:09:21.059Z,80.30
2018-06-20T01:10:21.060Z,79.96
2018-06-20T01:11:21.055Z,80.15
2018-06-20T01:12:21.051Z,81.07
2018-06-20T01:13:21.054Z,81.07
2018-06-20T01:14:21.054Z,80.98
2018-06-20T01:15:21.043Z,81.27
2018-06-20T01:16:21.049Z,82.14
2018-06-20T01:17:21.052Z,81.17
2018-06-20T01:18:21.043Z,81.07
2018-06-20T01:19:21.037Z,81.56
2018-06-20T01:20:21.039Z,81.65
2018-06-20T01:21:21.032Z,82.42
2018-06-20T01:22:21.029Z,81.65
2018-06-20T01:23:21.030Z,81.56
2018-06-20T01:24:21.027Z,82.42
2018-06-20T01:25:21.025Z,82.61
2018-06-20T01:26:21.026Z,82.14
2018-06-20T01:27:21.021Z,83.00
2018-06-20T01:28:21.029Z,82.42
2018-06-20T01:29:21.028Z,82.32
2018-06-20T01:30:21.017Z,82.23
2018-06-20T01:31:21.019Z,82.23
2018-06-20T01:32:21.022Z,82.32
2018-06-20T01:33:21.006Z,83.00
2018-06-20T01:34:21.007Z,82.42
2018-06-20T01:35:21.002Z,82.61
2018-06-20T01:36:21.000Z,83.19
2018-06-20T01:37:21.016Z,82.71
2018-06-20T01:38:20.995Z,82.71
2018-06-20T01:39:21.001Z,83.00
2018-06-20T01:40:20.995Z,83.29
2018-06-20T01:41:20.997Z,82.23
2018-06-20T01:42:21.000Z,82.32
2018-06-20T01:43:20.994Z,82.42
2018-06-20T01:44:20.980Z,82.67
2018-06-20T01:45:20.978Z,82.52
2018-06-20T01:46:20.977Z,81.84
2018-06-20T01:47:20.986Z,81.07
2018-06-20T01:48:20.974Z,81.17
2018-06-20T01:49:20.967Z,81.37
2018-06-20T01:50:20.966Z,81.27
2018-06-20T01:51:20.967Z,82.23
2018-06-20T01:52:20.964Z,81.65
2018-06-20T01:53:20.960Z,81.07
2018-06-20T01:54:20.958Z,79.82
2018-06-20T01:55:20.963Z,79.63
2018-06-20T01:56:20.961Z,80.60
2018-06-20T01:57:21.031Z,79.73
2018-06-20T01:58:20.956Z,79.73
2018-06-20T01:59:20.946Z,79.63
2018-06-20T02:00:20.945Z,80.21
2018-06-20T02:01:20.948Z,81.17
2018-06-20T02:02:20.937Z,81.84
2018-06-20T02:03:20.942Z,82.61
2018-06-20T02:04:20.941Z,82.81
2018-06-20T02:05:20.932Z,83.00
2018-06-20T02:06:20.929Z,83.39
2018-06-20T02:07:21.000Z,83.96
2018-06-20T02:08:20.932Z,84.06
2018-06-20T02:09:20.928Z,84.78
2018-06-20T02:10:20.919Z,85.17
2018-06-20T02:11:20.920Z,85.94
2018-06-20T02:12:20.916Z,86.22
2018-06-20T02:13:20.913Z,86.32
2018-06-20T02:14:20.911Z,86.61
2018-06-20T02:15:20.916Z,86.13
2018-06-20T02:16:20.905Z,85.17
2018-06-20T02:17:20.903Z,86.61
2018-06-20T02:18:20.900Z,86.52
2018-06-20T02:19:20.908Z,86.32
2018-06-20T02:20:20.989Z,86.22
2018-06-20T02:21:20.902Z,86.80
2018-06-20T02:22:20.897Z,86.80
2018-06-20T02:23:20.897Z,86.42
2018-06-20T02:24:20.899Z,86.32
2018-06-20T02:25:20.884Z,86.71
2018-06-20T02:26:20.879Z,87.09
2018-06-20T02:27:20.881Z,86.90
2018-06-20T02:28:20.877Z,86.80
2018-06-20T02:29:20.885Z,86.90
2018-06-20T02:30:20.870Z,87.19
2018-06-20T02:31:20.877Z,86.90
2018-06-20T02:32:20.867Z,87.38
2018-06-20T02:33:20.873Z,87.48
2018-06-20T02:34:20.859Z,86.99
2018-06-20T02:35:20.859Z,87.76
2018-06-20T02:36:20.856Z,87.76
2018-06-20T02:37:20.924Z,87.96
2018-06-20T02:38:20.854Z,88.39
2018-06-20T02:39:20.855Z,88.44
2018-06-20T02:40:20.925Z,88.59
2018-06-20T02:41:20.846Z,88.39
2018-06-20T02:42:20.839Z,88.01
2018-06-20T02:43:20.835Z,88.49
2018-06-20T02:44:20.830Z,88.87
2018-06-20T02:45:20.830Z,88.49
2018-06-20T02:46:20.834Z,89.36
2018-06-20T02:47:20.822Z,89.54
2018-06-20T02:48:20.826Z,89.69
2018-06-20T02:49:20.817Z,90.08
2018-06-20T02:50:20.894Z,90.27
2018-06-20T02:51:20.820Z,90.37
2018-06-20T02:52:20.813Z,90.17
2018-06-20T02:53:20.812Z,90.46
2018-06-20T02:54:20.801Z,91.04
2018-06-20T02:55:20.798Z,90.46
2018-06-20T02:56:20.793Z,90.94
2018-06-20T02:57:20.803Z,90.66
2018-06-20T02:58:20.790Z,91.33
2018-06-20T02:59:20.788Z,91.52
2018-06-20T03:00:20.919Z,92.00
2018-06-20T03:01:20.777Z,91.33
2018-06-20T03:02:20.784Z,91.42
2018-06-20T03:03:20.772Z,91.61
2018-06-20T03:04:20.770Z,90.94
2018-06-20T03:05:20.763Z,88.93
2018-06-20T03:06:20.760Z,88.06
2018-06-20T03:07:20.774Z,88.35
2018-06-20T03:08:20.770Z,88.54
2018-06-20T03:09:20.762Z,88.45
2018-06-20T03:10:20.829Z,89.22
2018-06-20T03:11:20.746Z,88.35
2018-06-20T03:12:20.747Z,88.35
2018-06-20T03:13:20.750Z,87.68
2018-06-20T03:14:20.737Z,88.25
2018-06-20T03:15:20.739Z,89.12
2018-06-20T03:16:20.729Z,89.31
2018-06-20T03:17:20.725Z,88.35
2018-06-20T03:18:20.722Z,87.58
2018-06-20T03:19:20.731Z,88.45
2018-06-20T03:20:20.715Z,88.54
2018-06-20T03:21:20.711Z,88.54
2018-06-20T03:22:20.720Z,88.73
2018-06-20T03:23:20.703Z,89.50
2018-06-20T03:24:20.699Z,89.02
2018-06-20T03:25:20.707Z,89.22
2018-06-20T03:26:20.692Z,89.79
2018-06-20T03:27:20.731Z,89.60
2018-06-20T03:28:20.687Z,90.37
2018-06-20T03:29:20.695Z,90.84
2018-06-20T03:30:20.683Z,90.37
2018-06-20T03:31:20.676Z,91.42
2018-06-20T03:32:20.673Z,90.84
2018-06-20T03:33:20.673Z,91.52
2018-06-20T03:34:20.671Z,91.04
2018-06-20T03:35:20.669Z,90.84
2018-06-20T03:36:20.672Z,90.75
2018-06-20T03:37:20.660Z,90.56
2018-06-20T03:38:20.664Z,90.37
2018-06-20T03:39:20.649Z,90.80
2018-06-20T03:40:20.643Z,90.61
2018-06-20T03:41:20.657Z,90.90
2018-06-20T03:42:20.645Z,90.61
2018-06-20T03:43:20.637Z,90.56
2018-06-20T03:44:20.684Z,90.99
2018-06-20T03:45:20.633Z,90.80
2018-06-20T03:46:20.628Z,91.09
2018-06-20T03:47:20.677Z,90.61
2018-06-20T03:48:20.616Z,90.52
2018-06-20T03:49:20.617Z,91.28
2018-06-20T03:50:20.619Z,92.14
2018-06-20T03:51:20.638Z,91.57
2018-06-20T03:52:20.604Z,92.24
2018-06-20T03:53:20.608Z,92.91
2018-06-20T03:54:20.596Z,91.76
2018-06-20T03:55:20.594Z,91.28
2018-06-20T03:56:20.602Z,91.57
2018-06-20T03:57:20.651Z,91.47
2018-06-20T03:58:20.583Z,91.47
2018-06-20T03:59:20.593Z,90.70
2018-06-20T04:00:20.581Z,90.32
2018-06-20T04:01:20.575Z,90.32
2018-06-20T04:02:20.584Z,90.80
2018-06-20T04:03:20.568Z,90.56
2018-06-20T04:04:20.561Z,90.56
2018-06-20T04:05:20.559Z,89.69
2018-06-20T04:06:20.553Z,90.08
2018-06-20T04:07:20.610Z,90.37
2018-06-20T04:08:20.546Z,89.69
2018-06-20T04:09:20.548Z,90.27
2018-06-20T04:10:20.553Z,90.17
2018-06-20T04:11:20.534Z,90.22
2018-06-20T04:12:20.546Z,90.80
2018-06-20T04:13:20.535Z,90.52
2018-06-20T04:14:20.533Z,90.80
2018-06-20T04:15:20.531Z,91.28
2018-06-20T04:16:20.525Z,91.28
2018-06-20T04:17:20.582Z,91.38
2018-06-20T04:18:20.524Z,91.04
2018-06-20T04:19:20.516Z,88.06
2018-06-20T04:20:20.509Z,83.04
2018-06-20T04:21:20.507Z,79.46
2018-06-20T04:22:20.500Z,76.65
2018-06-20T04:23:20.494Z,73.35
2018-06-20T04:24:20.549Z,71.45
2018-06-20T04:25:20.495Z,70.04
2018-06-20T04:26:20.487Z,67.11
2018-06-20T04:27:20.549Z,66.27
2018-06-20T04:28:20.486Z,64.66
2018-06-20T04:29:20.486Z,63.53
2018-06-20T04:30:20.492Z,61.98
2018-06-20T04:31:20.501Z,61.24
2018-06-20T04:32:20.484Z,60.39
2018-06-20T04:33:20.482Z,59.45
2018-06-20T04:34:20.487Z,58.09
2018-06-20T04:35:20.487Z,58.19
2018-06-20T04:36:20.487Z,57.15
2018-06-20T04:37:20.495Z,56.50
2018-06-20T04:38:20.491Z,55.04
2018-06-20T04:39:20.500Z,54.20
2018-06-20T04:40:20.538Z,53.64
2018-06-20T04:41:20.511Z,53.25
2018-06-20T04:42:20.505Z,52.47
2018-06-20T04:43:20.558Z,52.31
2018-06-20T04:44:20.510Z,51.53
2018-06-20T04:45:20.518Z,51.26
2018-06-20T04:46:20.519Z,50.97
2018-06-20T04:47:20.523Z,50.48
2018-06-20T04:48:20.527Z,50.38
2018-06-20T04:49:20.533Z,50.51
2018-06-20T04:50:20.549Z,49.83
2018-06-20T04:51:20.554Z,49.27
2018-06-20T04:52:20.558Z,49.07
2018-06-20T04:53:20.555Z,48.02
2018-06-20T04:54:20.560Z,48.22
2018-06-20T04:55:20.572Z,47.56
2018-06-20T04:56:20.579Z,47.66
2018-06-20T04:57:20.583Z,47.17
2018-06-20T04:58:20.589Z,47.27
2018-06-20T04:59:20.599Z,46.88
2018-06-20T05:00:20.615Z,46.20
2018-06-20T05:01:20.618Z,46.49
2018-06-20T05:02:20.621Z,46.51
2018-06-20T05:03:20.635Z,46.22
2018-06-20T05:04:20.637Z,46.51
2018-06-20T05:05:20.699Z,46.41
2018-06-20T05:06:20.657Z,46.22
2018-06-20T05:07:20.662Z,45.90
2018-06-20T05:08:20.680Z,46.12
2018-06-20T05:09:20.678Z,46.69
2018-06-20T05:10:20.693Z,47.17
2018-06-20T05:11:20.695Z,46.97
2018-06-20T05:12:20.701Z,46.97
2018-06-20T05:13:20.719Z,46.78
2018-06-20T05:14:20.729Z,47.36
2018-06-20T05:15:20.737Z,47.95
2018-06-20T05:16:20.740Z,47.17
2018-06-20T05:17:20.758Z,46.39
2018-06-20T05:18:20.752Z,46.88
2018-06-20T05:19:20.761Z,46.41
2018-06-20T05:20:20.765Z,46.22
2018-06-20T05:21:20.773Z,46.30
2018-06-20T05:22:20.782Z,46.88
2018-06-20T05:23:20.787Z,47.27
2018-06-20T05:24:20.795Z,47.73
2018-06-20T05:25:20.808Z,49.07
2018-06-20T05:26:20.814Z,49.90
2018-06-20T05:27:20.826Z,50.95
2018-06-20T05:28:20.818Z,52.45
2018-06-20T05:29:20.824Z,52.84
2018-06-20T05:30:20.837Z,53.97
2018-06-20T05:31:20.842Z,54.27
2018-06-20T05:32:20.847Z,54.63
2018-06-20T05:33:20.857Z,56.25
2018-06-20T05:34:20.852Z,57.09
2018-06-20T05:35:20.854Z,57.39
2018-06-20T05:36:20.856Z,57.48
2018-06-20T05:37:20.865Z,57.19
2018-06-20T05:38:20.865Z,58.04
2018-06-20T05:39:20.872Z,59.10
2018-06-20T05:40:20.878Z,59.46
2018-06-20T05:41:20.876Z,59.75
2018-06-20T05:42:20.879Z,60.24
2018-06-20T05:43:20.891Z,59.75
2018-06-20T05:44:20.891Z,60.69
2018-06-20T05:45:20.891Z,61.33
2018-06-20T05:46:20.895Z,62.11
2018-06-20T05:47:20.897Z,62.69
2018-06-20T05:48:20.902Z,61.82
2018-06-20T05:49:20.897Z,62.59
2018-06-20T05:50:20.913Z,62.40
2018-06-20T05:51:20.908Z,62.66
2018-06-20T05:52:20.904Z,64.11
2018-06-20T05:53:20.910Z,63.92
2018-06-20T05:54:20.912Z,64.11
2018-06-20T05:55:20.922Z,64.11
2018-06-20T05:56:20.928Z,64.40
2018-06-20T05:57:20.928Z,63.82
2018-06-20T05:58:20.920Z,64.11
2018-06-20T05:59:20.925Z,64.08
2018-06-20T06:00:20.922Z,64.76
2018-06-20T06:01:20.925Z,65.14
2018-06-20T06:02:20.930Z,64.95
2018-06-20T06:03:20.929Z,65.05
2018-06-20T06:04:20.932Z,64.85
2018-06-20T06:05:20.942Z,64.98
2018-06-20T06:06:20.938Z,65.14
2018-06-20T06:07:20.933Z,64.98
2018-06-20T06:08:20.948Z,65.56
2018-06-20T06:09:20.936Z,65.08
2018-06-20T06:10:20.942Z,64.31
2018-06-20T06:11:20.945Z,64.31
2018-06-20T06:12:20.940Z,63.95
2018-06-20T06:13:20.942Z,64.53
2018-06-20T06:14:20.954Z,64.62
2018-06-20T06:15:20.945Z,63.95
2018-06-20T06:16:20.946Z,63.27
2018-06-20T06:17:20.958Z,63.66
2018-06-20T06:18:20.949Z,63.18
2018-06-20T06:19:20.976Z,63.95
2018-06-20T06:20:20.962Z,62.30
2018-06-20T06:21:20.959Z,61.95
2018-06-20T06:22:20.959Z,63.59
2018-06-20T06:23:21.017Z,63.89
2018-06-20T06:24:20.957Z,63.31
2018-06-20T06:25:20.968Z,63.59
2018-06-20T06:26:20.971Z,63.98
2018-06-20T06:27:20.962Z,63.24
2018-06-20T06:28:20.964Z,62.17
2018-06-20T06:29:20.966Z,62.17
2018-06-20T06:30:21.057Z,62.27
2018-06-20T06:31:20.970Z,62.27
2018-06-20T06:32:20.982Z,61.98
2018-06-20T06:33:20.970Z,62.17
2018-06-20T06:34:20.974Z,63.89
2018-06-20T06:35:20.978Z,62.43
2018-06-20T06:36:20.976Z,61.85
2018-06-20T06:37:20.982Z,61.98
2018-06-20T06:38:20.980Z,63.14
2018-06-20T06:39:20.980Z,62.56
2018-06-20T06:40:20.981Z,62.56
2018-06-20T06:41:20.984Z,61.82
2018-06-20T06:42:20.989Z,61.62
2018-06-20T06:43:20.993Z,61.26
2018-06-20T06:44:20.999Z,60.30
2018-06-20T06:45:20.992Z,61.04
2018-06-20T06:46:21.002Z,62.66
2018-06-20T06:47:21.009Z,62.95
2018-06-20T06:48:21.000Z,63.92
2018-06-20T06:49:21.001Z,63.53
2018-06-20T06:50:21.012Z,62.75
2018-06-20T06:51:21.009Z,61.14
2018-06-20T06:52:21.010Z,61.40
2018-06-20T06:53:21.007Z,61.21
2018-06-20T06:54:21.008Z,61.98
2018-06-20T06:55:21.009Z,61.40
2018-06-20T06:56:21.008Z,61.82
2018-06-20T06:57:21.014Z,63.76
2018-06-20T06:58:21.012Z,64.34
2018-06-20T06:59:21.023Z,62.88
2018-06-20T07:00:21.027Z,62.72
2018-06-20T07:01:21.020Z,63.40
2018-06-20T07:02:21.019Z,64.11
2018-06-20T07:03:21.024Z,62.66
2018-06-20T07:04:21.025Z,62.75
2018-06-20T07:05:21.024Z,62.75
2018-06-20T07:06:21.032Z,61.69
2018-06-20T07:07:21.029Z,60.82
2018-06-20T07:08:21.027Z,60.75
2018-06-20T07:09:21.099Z,61.04
2018-06-20T07:10:21.033Z,59.52
2018-06-20T07:11:21.044Z,59.33
2018-06-20T07:12:21.036Z,60.10
2018-06-20T07:13:21.047Z,59.81
2018-06-20T07:14:21.042Z,60.03
2018-06-20T07:15:21.079Z,59.84
2018-06-20T07:16:21.042Z,59.16
2018-06-20T07:17:21.052Z,58.00
2018-06-20T07:18:21.057Z,57.70
2018-06-20T07:19:21.049Z,58.09
2018-06-20T07:20:21.050Z,58.45
2018-06-20T07:21:21.051Z,58.45
2018-06-20T07:22:21.061Z,59.13
2018-06-20T07:23:21.066Z,60.00
2018-06-20T07:24:21.157Z,59.81
2018-06-20T07:25:21.074Z,60.03
2018-06-20T07:26:21.072Z,59.84
2018-06-20T07:27:21.069Z,60.03
2018-06-20T07:28:21.074Z,59.67
2018-06-20T07:29:21.107Z,59.00
2018-06-20T07:30:21.078Z,59.09
2018-06-20T07:31:21.074Z,59.12
2018-06-20T07:32:21.082Z,58.41
2018-06-20T07:33:21.079Z,58.51
2018-06-20T07:34:21.137Z,58.67
2018-06-20T07:35:21.108Z,59.91
2018-06-20T07:36:21.115Z,60.32
2018-06-20T07:37:21.095Z,60.03
2018-06-20T07:38:21.100Z,59.55
2018-06-20T07:39:21.105Z,60.58
2018-06-20T07:40:21.101Z,61.00
2018-06-20T07:41:21.098Z,60.03
2018-06-20T07:42:21.098Z,60.23
2018-06-20T07:43:21.111Z,60.42
2018-06-20T07:44:21.110Z,60.61
2018-06-20T07:45:21.112Z,61.19
2018-06-20T07:46:21.111Z,60.97
2018-06-20T07:47:21.114Z,61.94
2018-06-20T07:48:21.113Z,61.24
2018-06-20T07:49:21.115Z,62.43
2018-06-20T07:50:21.116Z,61.62
2018-06-20T07:51:21.122Z,61.52
2018-06-20T07:52:21.135Z,62.46
2018-06-20T07:53:21.128Z,62.56
2018-06-20T07:54:21.129Z,63.98
2018-06-20T07:55:21.128Z,63.69
2018-06-20T07:56:21.135Z,63.59
2018-06-20T07:57:21.135Z,63.98
2018-06-20T07:58:21.140Z,64.17
2018-06-20T07:59:21.136Z,64.04
2018-06-20T08:00:21.142Z,64.56
2018-06-20T08:01:21.158Z,64.66
2018-06-20T08:02:21.156Z,63.92
2018-06-20T08:03:21.146Z,62.66
2018-06-20T08:04:21.145Z,62.49
2018-06-20T08:05:21.152Z,61.43
2018-06-20T08:06:21.228Z,61.91
2018-06-20T08:07:21.162Z,61.52
2018-06-20T08:08:21.154Z,61.36
2018-06-20T08:09:21.162Z,61.46
2018-06-20T08:10:21.171Z,61.19
2018-06-20T08:11:21.160Z,60.52
2018-06-20T08:12:21.202Z,58.97
2018-06-20T08:13:21.161Z,58.97
2018-06-20T08:14:21.169Z,58.41
2018-06-20T08:15:21.177Z,57.93
2018-06-20T08:16:21.169Z,57.83
2018-06-20T08:17:21.172Z,57.76
2018-06-20T08:18:21.173Z,57.57
2018-06-20T08:19:21.186Z,57.60
2018-06-20T08:20:21.180Z,57.69
2018-06-20T08:21:21.186Z,57.11
2018-06-20T08:22:21.182Z,57.23
2018-06-20T08:23:21.191Z,56.26
2018-06-20T08:24:21.189Z,55.55
2018-06-20T08:25:21.192Z,56.24
2018-06-20T08:26:21.196Z,56.34
2018-06-20T08:27:21.199Z,57.21
2018-06-20T08:28:21.197Z,56.75
2018-06-20T08:29:21.202Z,55.78
2018-06-20T08:30:21.208Z,55.19
2018-06-20T08:31:21.209Z,56.43
2018-06-20T08:32:21.211Z,55.73
2018-06-20T08:33:21.212Z,57.28
2018-06-20T08:34:21.225Z,56.89
2018-06-20T08:35:21.222Z,57.47
2018-06-20T08:36:21.226Z,57.11
2018-06-20T08:37:21.229Z,57.31
2018-06-20T08:38:21.237Z,55.85
2018-06-20T08:39:21.234Z,55.17
2018-06-20T08:40:21.236Z,55.19
2018-06-20T08:41:21.235Z,54.71
2018-06-20T08:42:21.270Z,53.93
2018-06-20T08:43:21.251Z,53.28
2018-06-20T08:44:21.246Z,54.05
2018-06-20T08:45:21.253Z,54.15
2018-06-20T08:46:21.254Z,54.44
2018-06-20T08:47:21.256Z,53.57
2018-06-20T08:48:21.270Z,53.54
2018-06-20T08:49:21.263Z,54.05
2018-06-20T08:50:21.277Z,53.57
2018-06-20T08:51:21.290Z,54.25
2018-06-20T08:52:21.278Z,55.41
2018-06-20T08:53:21.278Z,54.44
2018-06-20T08:54:21.277Z,54.88
2018-06-20T08:55:21.280Z,55.94
2018-06-20T08:56:21.296Z,55.46
2018-06-20T08:57:21.292Z,55.17
2018-06-20T08:58:21.305Z,54.90
2018-06-20T08:59:21.299Z,54.32
2018-06-20T09:00:21.304Z,53.64
2018-06-20T09:01:21.300Z,54.42
2018-06-20T09:02:21.309Z,54.71
2018-06-20T09:03:21.322Z,54.32
2018-06-20T09:04:21.312Z,54.52
2018-06-20T09:05:21.322Z,54.61
2018-06-20T09:06:21.316Z,54.32
2018-06-20T09:07:21.321Z,54.71
2018-06-20T09:08:21.323Z,55.39
2018-06-20T09:09:21.326Z,54.35
2018-06-20T09:10:21.330Z,54.74
2018-06-20T09:11:21.339Z,53.67
2018-06-20T09:12:21.337Z,53.30
2018-06-20T09:13:21.340Z,53.11
2018-06-20T09:14:21.425Z,52.92
2018-06-20T09:15:21.349Z,53.30
2018-06-20T09:16:21.349Z,51.84
2018-06-20T09:17:21.365Z,52.26
2018-06-20T09:18:21.357Z,51.94
2018-06-20T09:19:21.362Z,53.64
2018-06-20T09:20:21.384Z,54.71
2018-06-20T09:21:21.370Z,54.03
2018-06-20T09:22:21.400Z,54.00
2018-06-20T09:23:21.377Z,54.03
2018-06-20T09:24:21.389Z,54.80
2018-06-20T09:25:21.394Z,55.10
2018-06-20T09:26:21.387Z,54.44
2018-06-20T09:27:21.392Z,54.35
2018-06-20T09:28:21.395Z,53.47
2018-06-20T09:29:21.405Z,53.38
2018-06-20T09:30:21.402Z,54.42
2018-06-20T09:31:21.420Z,55.32
2018-06-20T09:32:21.409Z,54.42
2018-06-20T09:33:21.413Z,54.35
2018-06-20T09:34:21.439Z,53.47
2018-06-20T09:35:21.421Z,53.57
2018-06-20T09:36:21.429Z,52.89
2018-06-20T09:37:21.440Z,52.11
2018-06-20T09:38:21.458Z,52.21
2018-06-20T09:39:21.437Z,54.35
2018-06-20T09:40:21.444Z,53.45
2018-06-20T09:41:21.451Z,53.64
2018-06-20T09:42:21.455Z,53.45
2018-06-20T09:43:21.449Z,54.03
2018-06-20T09:44:21.462Z,54.03
2018-06-20T09:45:21.460Z,53.35
2018-06-20T09:46:21.460Z,52.69
2018-06-20T09:47:21.473Z,52.21
2018-06-20T09:48:21.466Z,52.23
2018-06-20T09:49:21.472Z,51.97
2018-06-20T09:50:21.472Z,51.48
2018-06-20T09:51:21.481Z,51.09
2018-06-20T09:52:21.478Z,51.29
2018-06-20T09:53:21.491Z,51.09
2018-06-20T09:54:21.531Z,50.92
2018-06-20T09:55:21.491Z,50.43
2018-06-20T09:56:21.510Z,50.34
2018-06-20T09:57:21.505Z,50.43
2018-06-20T09:58:21.506Z,50.70
2018-06-20T09:59:21.506Z,51.45
2018-06-20T10:00:21.513Z,51.55
2018-06-20T10:01:21.517Z,50.29
2018-06-20T10:02:21.517Z,49.61
2018-06-20T10:03:21.521Z,49.51
2018-06-20T10:04:21.523Z,49.12
2018-06-20T10:05:21.526Z,49.41
2018-06-20T10:06:21.595Z,50.02
2018-06-20T10:07:21.542Z,49.90
2018-06-20T10:08:21.535Z,50.31
2018-06-20T10:09:21.543Z,50.21
2018-06-20T10:10:21.544Z,49.95
2018-06-20T10:11:21.572Z,50.14
2018-06-20T10:12:21.556Z,49.37
2018-06-20T10:13:21.560Z,49.76
2018-06-20T10:14:21.566Z,49.95
2018-06-20T10:15:21.570Z,49.95
2018-06-20T10:16:21.570Z,49.46
2018-06-20T10:17:21.582Z,49.95
2018-06-20T10:18:21.576Z,50.14
2018-06-20T10:19:21.584Z,49.39
2018-06-20T10:20:21.600Z,48.80
2018-06-20T10:21:21.596Z,48.80
2018-06-20T10:22:21.591Z,46.95
2018-06-20T10:23:21.610Z,46.76
2018-06-20T10:24:21.607Z,46.66
2018-06-20T10:25:21.603Z,46.08
2018-06-20T10:26:21.607Z,46.17
2018-06-20T10:27:21.625Z,45.81
2018-06-20T10:28:21.616Z,44.44
2018-06-20T10:29:21.620Z,44.81
2018-06-20T10:30:21.628Z,43.74
2018-06-20T10:31:21.631Z,43.66
2018-06-20T10:32:21.637Z,44.23
2018-06-20T10:33:21.643Z,45.49
2018-06-20T10:34:21.642Z,46.05
2018-06-20T10:35:21.652Z,46.15
2018-06-20T10:36:21.650Z,46.54
2018-06-20T10:37:21.655Z,46.54
2018-06-20T10:38:21.657Z,46.73
2018-06-20T10:39:21.670Z,46.93
2018-06-20T10:40:21.668Z,46.08
2018-06-20T10:41:21.669Z,45.57
2018-06-20T10:42:21.675Z,45.67
2018-06-20T10:43:21.687Z,45.76
2018-06-20T10:44:21.690Z,45.67
2018-06-20T10:45:21.687Z,45.76
2018-06-20T10:46:21.781Z,45.57
2018-06-20T10:47:21.698Z,45.68
2018-06-20T10:48:21.702Z,45.59
2018-06-20T10:49:21.707Z,46.08
2018-06-20T10:50:21.710Z,45.88
2018-06-20T10:51:21.722Z,45.68
2018-06-20T10:52:21.716Z,45.90
2018-06-20T10:53:21.736Z,44.42
2018-06-20T10:54:21.750Z,43.05
2018-06-20T10:55:21.736Z,42.76
2018-06-20T10:56:21.741Z,44.32
2018-06-20T10:57:21.737Z,43.64
2018-06-20T10:58:21.745Z,44.71
2018-06-20T10:59:21.750Z,45.10
2018-06-20T11:00:21.751Z,44.71
2018-06-20T11:01:21.757Z,44.52
2018-06-20T11:02:21.757Z,43.54
2018-06-20T11:03:21.779Z,44.44
2018-06-20T11:04:21.765Z,43.08
2018-06-20T11:05:21.771Z,42.49
2018-06-20T11:06:21.784Z,42.79
2018-06-20T11:07:21.786Z,43.27
2018-06-20T11:08:21.790Z,43.27
2018-06-20T11:09:21.795Z,43.37
2018-06-20T11:10:21.792Z,43.29
2018-06-20T11:11:21.805Z,44.07
2018-06-20T11:12:21.802Z,43.59
2018-06-20T11:13:21.810Z,43.49
2018-06-20T11:14:21.810Z,41.46
2018-06-20T11:15:21.878Z,40.88
2018-06-20T11:16:21.824Z,41.17
2018-06-20T11:17:21.828Z,39.31
2018-06-20T11:18:21.827Z,37.37
2018-06-20T11:19:21.833Z,39.22
2018-06-20T11:20:21.837Z,40.19
2018-06-20T11:21:21.843Z,41.25
2018-06-20T11:22:21.847Z,42.05
2018-06-20T11:23:21.883Z,42.61
2018-06-20T11:24:21.856Z,42.61
2018-06-20T11:25:21.874Z,43.02
2018-06-20T11:26:21.866Z,42.83
2018-06-20T11:27:21.871Z,42.02
2018-06-20T11:28:21.876Z,40.76
2018-06-20T11:29:21.932Z,41.54
2018-06-20T11:30:21.885Z,39.20
2018-06-20T11:31:21.898Z,38.81
2018-06-20T11:32:21.895Z,39.31
2018-06-20T11:33:21.901Z,39.80
2018-06-20T11:34:21.904Z,39.12
2018-06-20T11:35:21.909Z,39.41
2018-06-20T11:36:21.917Z,39.80
2018-06-20T11:37:21.918Z,40.29
2018-06-20T11:38:21.932Z,38.24
2018-06-20T11:39:21.942Z,38.14
2018-06-20T11:40:21.948Z,39.12
2018-06-20T11:41:21.939Z,39.31
2018-06-20T11:42:21.944Z,39.31
2018-06-20T11:43:21.947Z,39.41
2018-06-20T11:44:21.953Z,38.92
2018-06-20T11:45:21.958Z,39.12
2018-06-20T11:46:21.970Z,39.51
2018-06-20T11:47:21.976Z,38.53
2018-06-20T11:48:21.972Z,38.06
2018-06-20T11:49:21.988Z,38.65
2018-06-20T11:50:21.982Z,39.43
2018-06-20T11:51:21.989Z,38.65
2018-06-20T11:52:22.002Z,38.94
2018-06-20T11:53:21.997Z,38.65
2018-06-20T11:54:22.002Z,39.14
2018-06-20T11:55:22.008Z,38.84
2018-06-20T11:56:22.019Z,38.38
2018-06-20T11:57:22.023Z,39.33
2018-06-20T11:58:22.027Z,39.43
2018-06-20T11:59:22.033Z,39.14
2018-06-20T12:00:22.037Z,38.96
2018-06-20T12:01:22.037Z,39.33
2018-06-20T12:02:22.053Z,39.84
2018-06-20T12:03:22.050Z,40.31
2018-06-20T12:04:22.052Z,40.31
2018-06-20T12:05:22.064Z,41.28
2018-06-20T12:06:22.063Z,41.11
2018-06-20T12:07:22.072Z,41.19
2018-06-20T12:08:22.082Z,42.07
2018-06-20T12:09:22.082Z,42.75
2018-06-20T12:10:22.093Z,41.97
2018-06-20T12:11:22.100Z,41.19
2018-06-20T12:12:22.094Z,40.21
2018-06-20T12:13:22.101Z,40.04
2018-06-20T12:14:22.114Z,40.14
2018-06-20T12:15:22.110Z,39.94
2018-06-20T12:16:22.124Z,39.84
2018-06-20T12:17:22.122Z,39.45
2018-06-20T12:18:22.131Z,39.57
2018-06-20T12:19:22.129Z,39.37
2018-06-20T12:20:22.135Z,39.26
2018-06-20T12:21:22.145Z,39.37
2018-06-20T12:22:22.151Z,39.28
2018-06-20T12:23:22.160Z,37.81
2018-06-20T12:24:22.165Z,36.15
2018-06-20T12:25:22.169Z,36.04
2018-06-20T12:26:22.180Z,36.23
2018-06-20T12:27:22.185Z,36.72
2018-06-20T12:28:22.198Z,37.01
2018-06-20T12:29:22.272Z,37.01
2018-06-20T12:30:22.198Z,36.04
2018-06-20T12:31:22.203Z,34.19
2018-06-20T12:32:22.198Z,34.58
2018-06-20T12:33:22.207Z,34.88
2018-06-20T12:34:22.211Z,34.88
2018-06-20T12:35:22.221Z,34.58
2018-06-20T12:36:22.228Z,34.29
2018-06-20T12:37:22.227Z,34.39
2018-06-20T12:38:22.249Z,35.66
2018-06-20T12:39:22.247Z,36.05
2018-06-20T12:40:22.243Z,36.34
2018-06-20T12:41:22.258Z,37.02
2018-06-20T12:42:22.259Z,37.12
2018-06-20T12:43:22.271Z,37.22
2018-06-20T12:44:22.267Z,36.05
2018-06-20T12:45:22.272Z,37.11
2018-06-20T12:46:22.284Z,36.83
2018-06-20T12:47:22.284Z,36.73
2018-06-20T12:48:22.298Z,37.01
2018-06-20T12:49:22.292Z,37.12
2018-06-20T12:50:22.307Z,37.02
2018-06-20T12:51:22.310Z,36.63
2018-06-20T12:52:22.320Z,36.16